LNG Dream — C6VO5 — position and weather

sailwx.info

Track history (hours):
 
Tides and Currents Weather Stations Pressure Air Temp Water Temp Dewpoint Dewpoint Depression Visibility Wind Speed Wind Dir Waves Ship Positions

LNG Dream

Last reported at 2017-Sep-15 07:36 UTC. Time now 2017-Sep-22 08:10 UTC.
Position N 33°58' E 134°56'.

Length 289.6 m; beam 49 m.

Type: Ship (hazmat cat A). MMSI: 309065000.

Date/timePositionNaut miles runAvg speedWind from/ knotsBaromVisibWave heightAir tempDewpointWater temp
2017-Sep-15 07:36N 33°58' E 134°56'216.2
2017-Sep-15 07:30N 33°60' E 134°56'816.0
2017-Sep-15 07:00N 34°08' E 134°58'713.1
2017-Sep-15 06:30N 34°14' E 134°59'612.5
2017-Sep-15 05:59N 34°21' E 134°60'715.0
2017-Sep-15 05:30N 34°25' E 135°06'815.9
2017-Sep-15 05:00N 34°30' E 135°14'713.2
2017-Sep-15 04:30N 34°33' E 135°21'3 0.1
2017-Sep-14 03:22N 34°33' E 135°25'0 0.7
2017-Sep-14 03:00N 34°33' E 135°25'3 5.5
2017-Sep-14 02:30N 34°33' E 135°21'4 8.2
2017-Sep-14 02:01N 34°33' E 135°16'4 8.0
2017-Sep-14 01:31N 34°31' E 135°12'713.9
2017-Sep-14 01:00N 34°25' E 135°07'814.8
2017-Sep-14 00:29N 34°19' E 135°01'511.4
2017-Sep-14 00:00N 34°14' E 134°59'5 9.3
2017-Sep-13 23:30N 34°09' E 134°60'510.5
2017-Sep-13 23:00N 34°04' E 134°60'510.2
2017-Sep-13 22:30N 33°59' E 134°60'610.9
2017-Sep-13 21:59N 33°54' E 134°60'  
Track history (hours):
 
Tides and Currents Weather Stations Pressure Air Temp Water Temp Dewpoint Dewpoint Depression Visibility Wind Speed Wind Dir Waves Ship Positions

LNG Dream

Last reported at 2017-Sep-15 07:36 UTC. Time now 2017-Sep-22 08:10 UTC.
Position N 33°58' E 134°56'.

Length 289.6 m; beam 49 m.

Type: Ship (hazmat cat A). MMSI: 309065000.

Date/timePositionNaut miles runAvg speedWind from/ knotsBaromVisibWave heightAir tempDewpointWater temp
2017-Sep-15 07:36N 33°58' E 134°56'216.2
2017-Sep-15 07:30N 33°60' E 134°56'816.0
2017-Sep-15 07:00N 34°08' E 134°58'713.1
2017-Sep-15 06:30N 34°14' E 134°59'612.5
2017-Sep-15 05:59N 34°21' E 134°60'715.0
2017-Sep-15 05:30N 34°25' E 135°06'815.9
2017-Sep-15 05:00N 34°30' E 135°14'713.2
2017-Sep-15 04:30N 34°33' E 135°21'3 0.1
2017-Sep-14 03:22N 34°33' E 135°25'0 0.7
2017-Sep-14 03:00N 34°33' E 135°25'3 5.5
2017-Sep-14 02:30N 34°33' E 135°21'4 8.2
2017-Sep-14 02:01N 34°33' E 135°16'4 8.0
2017-Sep-14 01:31N 34°31' E 135°12'713.9
2017-Sep-14 01:00N 34°25' E 135°07'814.8
2017-Sep-14 00:29N 34°19' E 135°01'511.4
2017-Sep-14 00:00N 34°14' E 134°59'5 9.3
2017-Sep-13 23:30N 34°09' E 134°60'510.5
2017-Sep-13 23:00N 34°04' E 134°60'510.2
2017-Sep-13 22:30N 33°59' E 134°60'610.9
2017-Sep-13 21:59N 33°54' E 134°60'  

Dump ship's entire track history